sensor_id;sensor_type;location;lat;lon;timestamp;pressure;altitude;pressure_sealevel;temperature;humidity
76074;BME280;64776;42.636;24.358;2024-02-04T00:02:10;90277.00;;;2.03;91.30
76074;BME280;64776;42.636;24.358;2024-02-04T00:05:11;90254.81;;;2.32;89.34
76074;BME280;64776;42.636;24.358;2024-02-04T00:08:11;90267.47;;;2.50;88.62
76074;BME280;64776;42.636;24.358;2024-02-04T00:11:12;90267.81;;;2.52;88.35
76074;BME280;64776;42.636;24.358;2024-02-04T00:14:13;90268.53;;;2.53;88.13
76074;BME280;64776;42.636;24.358;2024-02-04T00:17:16;90268.13;;;2.54;87.92
76074;BME280;64776;42.636;24.358;2024-02-04T00:20:17;90274.56;;;2.53;87.98
76074;BME280;64776;42.636;24.358;2024-02-04T00:23:18;90265.50;;;2.54;87.75
76074;BME280;64776;42.636;24.358;2024-02-04T00:26:19;90271.81;;;2.57;87.35
76074;BME280;64776;42.636;24.358;2024-02-04T00:29:20;90291.81;;;2.54;87.67
76074;BME280;64776;42.636;24.358;2024-02-04T00:32:22;90293.22;;;2.71;87.79
76074;BME280;64776;42.636;24.358;2024-02-04T00:35:23;90302.00;;;2.81;87.37
76074;BME280;64776;42.636;24.358;2024-02-04T00:38:24;90297.97;;;2.76;87.09
76074;BME280;64776;42.636;24.358;2024-02-04T00:41:25;90289.66;;;2.78;87.33
76074;BME280;64776;42.636;24.358;2024-02-04T00:44:25;90297.16;;;2.79;87.40
76074;BME280;64776;42.636;24.358;2024-02-04T00:47:28;90296.41;;;2.91;87.28
76074;BME280;64776;42.636;24.358;2024-02-04T00:50:29;90290.66;;;3.09;86.09
76074;BME280;64776;42.636;24.358;2024-02-04T00:53:29;90284.31;;;3.06;86.25
76074;BME280;64776;42.636;24.358;2024-02-04T00:56:30;90277.69;;;3.02;86.65
76074;BME280;64776;42.636;24.358;2024-02-04T00:59:31;90276.41;;;3.06;86.66
76074;BME280;64776;42.636;24.358;2024-02-04T01:02:33;90271.34;;;3.12;86.62
76074;BME280;64776;42.636;24.358;2024-02-04T01:05:35;90270.72;;;3.08;86.59
76074;BME280;64776;42.636;24.358;2024-02-04T01:08:36;90282.22;;;3.14;86.33
76074;BME280;64776;42.636;24.358;2024-02-04T01:11:37;90287.91;;;3.12;86.31
76074;BME280;64776;42.636;24.358;2024-02-04T01:14:38;90287.06;;;3.15;86.13
76074;BME280;64776;42.636;24.358;2024-02-04T01:17:40;90295.91;;;3.21;86.04
76074;BME280;64776;42.636;24.358;2024-02-04T01:20:41;90301.94;;;3.22;86.12
76074;BME280;64776;42.636;24.358;2024-02-04T01:23:42;90311.63;;;3.12;86.34
76074;BME280;64776;42.636;24.358;2024-02-04T01:26:42;90303.41;;;3.10;86.16
76074;BME280;64776;42.636;24.358;2024-02-04T01:29:43;90300.78;;;3.10;86.54
76074;BME280;64776;42.636;24.358;2024-02-04T01:32:46;90294.88;;;3.06;87.01
76074;BME280;64776;42.636;24.358;2024-02-04T01:35:46;90293.16;;;3.00;87.03
76074;BME280;64776;42.636;24.358;2024-02-04T01:38:47;90301.25;;;2.93;87.20
76074;BME280;64776;42.636;24.358;2024-02-04T01:41:48;90300.53;;;2.92;87.49
76074;BME280;64776;42.636;24.358;2024-02-04T01:44:49;90302.88;;;2.90;87.63
76074;BME280;64776;42.636;24.358;2024-02-04T01:47:51;90314.03;;;2.94;87.65
76074;BME280;64776;42.636;24.358;2024-02-04T01:50:53;90322.34;;;2.93;87.79
76074;BME280;64776;42.636;24.358;2024-02-04T01:53:55;90321.94;;;2.94;87.54
76074;BME280;64776;42.636;24.358;2024-02-04T01:56:58;90317.72;;;2.97;87.21
76074;BME280;64776;42.636;24.358;2024-02-04T01:59:59;90320.13;;;2.91;86.92
76074;BME280;64776;42.636;24.358;2024-02-04T02:03:05;90316.00;;;2.78;87.70
76074;BME280;64776;42.636;24.358;2024-02-04T02:06:07;90321.34;;;2.74;87.36
76074;BME280;64776;42.636;24.358;2024-02-04T02:09:08;90319.72;;;2.80;86.79
76074;BME280;64776;42.636;24.358;2024-02-04T02:12:12;90311.47;;;2.78;86.85
76074;BME280;64776;42.636;24.358;2024-02-04T02:15:17;90305.38;;;2.81;86.54
76074;BME280;64776;42.636;24.358;2024-02-04T02:18:25;90305.47;;;2.78;86.46
76074;BME280;64776;42.636;24.358;2024-02-04T02:21:43;90298.19;;;2.69;86.81
76074;BME280;64776;42.636;24.358;2024-02-04T02:24:47;90291.63;;;2.61;87.10
76074;BME280;64776;42.636;24.358;2024-02-04T02:27:49;90287.91;;;2.46;87.32
76074;BME280;64776;42.636;24.358;2024-02-04T02:30:50;90285.34;;;2.30;88.56
76074;BME280;64776;42.636;24.358;2024-02-04T02:33:51;90270.69;;;2.29;88.60
76074;BME280;64776;42.636;24.358;2024-02-04T02:36:56;90283.81;;;2.16;89.01
76074;BME280;64776;42.636;24.358;2024-02-04T02:40:02;90283.56;;;2.11;89.76
76074;BME280;64776;42.636;24.358;2024-02-04T02:43:06;90300.53;;;2.10;89.59
76074;BME280;64776;42.636;24.358;2024-02-04T02:46:08;90299.38;;;2.11;89.11
76074;BME280;64776;42.636;24.358;2024-02-04T02:49:09;90301.44;;;2.03;89.26
76074;BME280;64776;42.636;24.358;2024-02-04T02:52:10;90298.53;;;2.14;89.62
76074;BME280;64776;42.636;24.358;2024-02-04T02:55:13;90297.06;;;2.13;89.18
76074;BME280;64776;42.636;24.358;2024-02-04T02:58:14;90291.47;;;2.11;89.18
76074;BME280;64776;42.636;24.358;2024-02-04T03:01:15;90288.41;;;2.12;88.41
76074;BME280;64776;42.636;24.358;2024-02-04T03:04:16;90283.13;;;2.00;88.91
76074;BME280;64776;42.636;24.358;2024-02-04T03:07:17;90298.22;;;2.12;88.86
76074;BME280;64776;42.636;24.358;2024-02-04T03:10:19;90285.06;;;2.12;88.16
76074;BME280;64776;42.636;24.358;2024-02-04T03:13:20;90283.63;;;1.95;88.36
76074;BME280;64776;42.636;24.358;2024-02-04T03:16:21;90274.59;;;1.96;88.33
76074;BME280;64776;42.636;24.358;2024-02-04T03:19:21;90271.44;;;2.01;88.21
76074;BME280;64776;42.636;24.358;2024-02-04T03:22:22;90253.81;;;1.85;88.71
76074;BME280;64776;42.636;24.358;2024-02-04T03:25:25;90259.97;;;1.79;89.04
76074;BME280;64776;42.636;24.358;2024-02-04T03:28:26;90254.97;;;1.68;89.74
76074;BME280;64776;42.636;24.358;2024-02-04T03:31:26;90249.75;;;1.52;91.43
76074;BME280;64776;42.636;24.358;2024-02-04T03:34:27;90252.53;;;1.29;91.77
76074;BME280;64776;42.636;24.358;2024-02-04T03:37:28;90261.59;;;1.44;92.05
76074;BME280;64776;42.636;24.358;2024-02-04T03:40:30;90257.03;;;1.44;91.14
76074;BME280;64776;42.636;24.358;2024-02-04T03:43:31;90256.56;;;1.49;90.46
76074;BME280;64776;42.636;24.358;2024-02-04T03:46:32;90259.34;;;1.42;90.20
76074;BME280;64776;42.636;24.358;2024-02-04T03:49:33;90244.41;;;1.39;90.95
76074;BME280;64776;42.636;24.358;2024-02-04T03:52:34;90261.75;;;1.21;92.88
76074;BME280;64776;42.636;24.358;2024-02-04T03:55:36;90250.22;;;1.47;91.51
76074;BME280;64776;42.636;24.358;2024-02-04T03:58:37;90252.13;;;1.14;92.51
76074;BME280;64776;42.636;24.358;2024-02-04T04:01:38;90257.56;;;1.23;93.45
76074;BME280;64776;42.636;24.358;2024-02-04T04:04:39;90239.91;;;1.40;92.72
76074;BME280;64776;42.636;24.358;2024-02-04T04:07:40;90239.16;;;1.39;91.84
76074;BME280;64776;42.636;24.358;2024-02-04T04:10:43;90236.19;;;1.37;92.10
76074;BME280;64776;42.636;24.358;2024-02-04T04:13:44;90217.16;;;1.33;91.81
76074;BME280;64776;42.636;24.358;2024-02-04T04:16:45;90223.72;;;1.25;91.85
76074;BME280;64776;42.636;24.358;2024-02-04T04:19:45;90224.31;;;1.17;91.45
76074;BME280;64776;42.636;24.358;2024-02-04T04:22:46;90220.13;;;1.19;93.38
76074;BME280;64776;42.636;24.358;2024-02-04T04:25:48;90243.91;;;1.12;93.48
76074;BME280;64776;42.636;24.358;2024-02-04T04:28:49;90241.94;;;1.16;93.18
76074;BME280;64776;42.636;24.358;2024-02-04T04:31:50;90231.63;;;1.09;94.31
76074;BME280;64776;42.636;24.358;2024-02-04T04:34:51;90234.88;;;0.97;93.15
76074;BME280;64776;42.636;24.358;2024-02-04T04:37:52;90235.06;;;0.90;93.53
76074;BME280;64776;42.636;24.358;2024-02-04T04:40:54;90224.47;;;0.94;94.02
76074;BME280;64776;42.636;24.358;2024-02-04T04:43:55;90230.97;;;1.21;97.75
76074;BME280;64776;42.636;24.358;2024-02-04T04:46:56;90229.81;;;1.83;96.43
76074;BME280;64776;42.636;24.358;2024-02-04T04:49:57;90228.22;;;2.14;95.05
76074;BME280;64776;42.636;24.358;2024-02-04T04:52:57;90228.44;;;2.61;92.90
76074;BME280;64776;42.636;24.358;2024-02-04T04:56:01;90227.72;;;2.98;91.69
76074;BME280;64776;42.636;24.358;2024-02-04T04:59:02;90232.31;;;3.19;90.37
76074;BME280;64776;42.636;24.358;2024-02-04T05:02:03;90233.91;;;3.29;89.39
76074;BME280;64776;42.636;24.358;2024-02-04T05:05:05;90240.84;;;3.36;89.38
76074;BME280;64776;42.636;24.358;2024-02-04T05:08:06;90244.66;;;3.48;88.61
76074;BME280;64776;42.636;24.358;2024-02-04T05:11:08;90247.47;;;3.53;88.37
76074;BME280;64776;42.636;24.358;2024-02-04T05:14:10;90249.59;;;3.58;88.27
76074;BME280;64776;42.636;24.358;2024-02-04T05:17:11;90239.31;;;3.73;87.79
76074;BME280;64776;42.636;24.358;2024-02-04T05:20:12;90250.38;;;3.80;86.96
76074;BME280;64776;42.636;24.358;2024-02-04T05:23:13;90246.16;;;3.83;86.26
76074;BME280;64776;42.636;24.358;2024-02-04T05:26:17;90251.97;;;3.78;87.07
76074;BME280;64776;42.636;24.358;2024-02-04T05:29:27;90249.88;;;3.73;87.63
76074;BME280;64776;42.636;24.358;2024-02-04T05:32:28;90242.78;;;3.82;87.44
76074;BME280;64776;42.636;24.358;2024-02-04T05:35:28;90249.19;;;3.81;87.52
76074;BME280;64776;42.636;24.358;2024-02-04T05:38:30;90244.59;;;3.73;86.82
76074;BME280;64776;42.636;24.358;2024-02-04T05:41:32;90250.22;;;3.62;87.67
76074;BME280;64776;42.636;24.358;2024-02-04T05:44:33;90232.28;;;3.57;87.78
76074;BME280;64776;42.636;24.358;2024-02-04T05:47:34;90228.81;;;3.48;88.84
76074;BME280;64776;42.636;24.358;2024-02-04T05:50:35;90237.88;;;3.47;89.36
76074;BME280;64776;42.636;24.358;2024-02-04T05:53:36;90226.63;;;3.46;88.70
76074;BME280;64776;42.636;24.358;2024-02-04T05:56:38;90221.41;;;3.55;89.08
76074;BME280;64776;42.636;24.358;2024-02-04T05:59:39;90220.53;;;3.71;88.83
76074;BME280;64776;42.636;24.358;2024-02-04T06:02:40;90221.16;;;3.75;88.60
76074;BME280;64776;42.636;24.358;2024-02-04T06:05:41;90231.91;;;3.80;88.28
76074;BME280;64776;42.636;24.358;2024-02-04T06:08:42;90241.41;;;3.78;87.98
76074;BME280;64776;42.636;24.358;2024-02-04T06:11:46;90242.31;;;3.62;88.89
76074;BME280;64776;42.636;24.358;2024-02-04T06:14:47;90240.63;;;3.56;89.38
76074;BME280;64776;42.636;24.358;2024-02-04T06:17:48;90231.78;;;3.50;89.71
76074;BME280;64776;42.636;24.358;2024-02-04T06:20:48;90240.13;;;3.48;90.21
76074;BME280;64776;42.636;24.358;2024-02-04T06:23:49;90241.78;;;3.42;90.09
76074;BME280;64776;42.636;24.358;2024-02-04T06:26:51;90259.75;;;3.35;90.37
76074;BME280;64776;42.636;24.358;2024-02-04T06:29:52;90271.88;;;3.19;91.47
76074;BME280;64776;42.636;24.358;2024-02-04T06:32:53;90268.28;;;3.13;91.91
76074;BME280;64776;42.636;24.358;2024-02-04T06:35:54;90286.84;;;3.10;92.59
76074;BME280;64776;42.636;24.358;2024-02-04T06:38:55;90279.25;;;3.12;91.82
76074;BME280;64776;42.636;24.358;2024-02-04T06:41:57;90275.03;;;3.14;92.32
76074;BME280;64776;42.636;24.358;2024-02-04T06:44:58;90287.06;;;3.28;91.70
76074;BME280;64776;42.636;24.358;2024-02-04T06:47:59;90278.72;;;3.42;91.08
76074;BME280;64776;42.636;24.358;2024-02-04T06:51:00;90276.94;;;3.52;90.64
76074;BME280;64776;42.636;24.358;2024-02-04T06:54:01;90271.53;;;3.55;90.36
76074;BME280;64776;42.636;24.358;2024-02-04T06:57:03;90272.41;;;3.52;90.37
76074;BME280;64776;42.636;24.358;2024-02-04T07:00:05;90269.34;;;3.41;91.12
76074;BME280;64776;42.636;24.358;2024-02-04T07:03:06;90261.94;;;3.49;90.64
76074;BME280;64776;42.636;24.358;2024-02-04T07:06:06;90280.06;;;3.72;89.04
76074;BME280;64776;42.636;24.358;2024-02-04T07:09:07;90260.84;;;3.71;88.86
76074;BME280;64776;42.636;24.358;2024-02-04T07:12:10;90265.25;;;3.87;88.02
76074;BME280;64776;42.636;24.358;2024-02-04T07:15:10;90271.47;;;3.93;87.57
76074;BME280;64776;42.636;24.358;2024-02-04T07:18:11;90259.19;;;3.99;86.86
76074;BME280;64776;42.636;24.358;2024-02-04T07:21:12;90252.34;;;4.23;84.61
76074;BME280;64776;42.636;24.358;2024-02-04T07:24:13;90243.09;;;4.40;83.81
76074;BME280;64776;42.636;24.358;2024-02-04T07:27:15;90250.13;;;4.43;83.51
76074;BME280;64776;42.636;24.358;2024-02-04T07:30:16;90226.72;;;4.54;81.47
76074;BME280;64776;42.636;24.358;2024-02-04T07:33:17;90216.25;;;4.72;79.33
76074;BME280;64776;42.636;24.358;2024-02-04T07:36:18;90209.63;;;4.99;78.02
76074;BME280;64776;42.636;24.358;2024-02-04T07:39:18;90210.34;;;4.90;77.96
76074;BME280;64776;42.636;24.358;2024-02-04T07:42:21;90203.78;;;5.04;77.47
76074;BME280;64776;42.636;24.358;2024-02-04T07:45:22;90235.34;;;5.07;76.35
76074;BME280;64776;42.636;24.358;2024-02-04T07:48:22;90191.34;;;5.22;75.50
76074;BME280;64776;42.636;24.358;2024-02-04T07:51:23;90198.28;;;5.29;74.71
76074;BME280;64776;42.636;24.358;2024-02-04T07:54:24;90186.38;;;5.33;74.23
76074;BME280;64776;42.636;24.358;2024-02-04T07:57:26;90196.97;;;5.42;73.59
76074;BME280;64776;42.636;24.358;2024-02-04T08:00:27;90172.91;;;5.49;73.61
76074;BME280;64776;42.636;24.358;2024-02-04T08:03:28;90180.97;;;5.37;74.29
76074;BME280;64776;42.636;24.358;2024-02-04T08:06:28;90187.09;;;5.34;74.26
76074;BME280;64776;42.636;24.358;2024-02-04T08:09:29;90192.69;;;5.36;73.67
76074;BME280;64776;42.636;24.358;2024-02-04T08:12:32;90182.69;;;5.31;74.32
76074;BME280;64776;42.636;24.358;2024-02-04T08:15:32;90197.84;;;5.30;73.93
76074;BME280;64776;42.636;24.358;2024-02-04T08:18:33;90173.88;;;5.34;74.87
76074;BME280;64776;42.636;24.358;2024-02-04T08:21:34;90179.91;;;5.25;74.41
76074;BME280;64776;42.636;24.358;2024-02-04T08:24:35;90150.22;;;5.30;75.61
76074;BME280;64776;42.636;24.358;2024-02-04T08:27:37;90160.94;;;5.36;74.11
76074;BME280;64776;42.636;24.358;2024-02-04T08:30:38;90152.91;;;5.39;74.00
76074;BME280;64776;42.636;24.358;2024-02-04T08:33:38;90148.03;;;5.38;73.93
76074;BME280;64776;42.636;24.358;2024-02-04T08:36:39;90138.34;;;5.44;74.46
76074;BME280;64776;42.636;24.358;2024-02-04T08:39:40;90132.59;;;5.54;73.95
76074;BME280;64776;42.636;24.358;2024-02-04T08:42:42;90144.38;;;5.71;72.26
76074;BME280;64776;42.636;24.358;2024-02-04T08:45:43;90146.47;;;5.76;73.00
76074;BME280;64776;42.636;24.358;2024-02-04T08:48:43;90125.28;;;5.86;71.88
76074;BME280;64776;42.636;24.358;2024-02-04T08:51:44;90147.22;;;5.95;71.96
76074;BME280;64776;42.636;24.358;2024-02-04T08:54:45;90140.00;;;6.05;72.34
76074;BME280;64776;42.636;24.358;2024-02-04T08:57:47;90145.59;;;5.98;72.78
76074;BME280;64776;42.636;24.358;2024-02-04T09:00:48;90135.00;;;5.98;71.80
76074;BME280;64776;42.636;24.358;2024-02-04T09:03:49;90126.63;;;5.99;71.13
76074;BME280;64776;42.636;24.358;2024-02-04T09:06:49;90152.22;;;6.02;71.41
76074;BME280;64776;42.636;24.358;2024-02-04T09:09:50;90168.56;;;6.10;71.04
76074;BME280;64776;42.636;24.358;2024-02-04T09:12:52;90151.34;;;6.05;70.81
76074;BME280;64776;42.636;24.358;2024-02-04T09:15:53;90148.38;;;6.12;70.83
76074;BME280;64776;42.636;24.358;2024-02-04T09:18:54;90117.78;;;6.11;71.82
76074;BME280;64776;42.636;24.358;2024-02-04T09:21:55;90153.97;;;6.14;71.30
76074;BME280;64776;42.636;24.358;2024-02-04T09:24:55;90162.53;;;6.09;71.76
76074;BME280;64776;42.636;24.358;2024-02-04T09:27:58;90137.94;;;6.09;70.91
76074;BME280;64776;42.636;24.358;2024-02-04T09:30:58;90132.63;;;6.09;71.87
76074;BME280;64776;42.636;24.358;2024-02-04T09:33:59;90118.06;;;6.13;70.77
76074;BME280;64776;42.636;24.358;2024-02-04T09:37:00;90114.22;;;6.32;69.51
76074;BME280;64776;42.636;24.358;2024-02-04T09:40:01;90084.06;;;6.21;70.58
76074;BME280;64776;42.636;24.358;2024-02-04T09:43:03;90100.41;;;6.10;70.89
76074;BME280;64776;42.636;24.358;2024-02-04T09:46:05;90119.56;;;6.05;71.41
76074;BME280;64776;42.636;24.358;2024-02-04T09:49:05;90115.75;;;5.88;72.39
76074;BME280;64776;42.636;24.358;2024-02-04T09:52:09;90103.81;;;5.84;73.25
76074;BME280;64776;42.636;24.358;2024-02-04T09:55:11;90119.84;;;5.80;72.89
76074;BME280;64776;42.636;24.358;2024-02-04T09:58:15;90126.63;;;5.81;72.91
76074;BME280;64776;42.636;24.358;2024-02-04T10:01:16;90103.94;;;5.80;73.77
76074;BME280;64776;42.636;24.358;2024-02-04T10:04:17;90119.09;;;5.79;74.32
76074;BME280;64776;42.636;24.358;2024-02-04T10:07:18;90100.28;;;5.96;73.55
76074;BME280;64776;42.636;24.358;2024-02-04T10:10:19;90124.84;;;6.05;72.98
76074;BME280;64776;42.636;24.358;2024-02-04T10:13:21;90099.22;;;6.20;72.66
76074;BME280;64776;42.636;24.358;2024-02-04T10:16:22;90138.03;;;6.50;72.67
76074;BME280;64776;42.636;24.358;2024-02-04T10:19:24;90125.06;;;6.52;72.32
76074;BME280;64776;42.636;24.358;2024-02-04T10:22:26;90130.53;;;6.31;72.24
76074;BME280;64776;42.636;24.358;2024-02-04T10:25:27;90159.56;;;6.07;73.36
76074;BME280;64776;42.636;24.358;2024-02-04T10:28:29;90152.22;;;6.02;73.53
76074;BME280;64776;42.636;24.358;2024-02-04T10:31:31;90151.50;;;6.02;73.29
76074;BME280;64776;42.636;24.358;2024-02-04T10:34:31;90163.69;;;5.99;72.67
76074;BME280;64776;42.636;24.358;2024-02-04T10:46:12;90174.13;;;6.21;72.25
76074;BME280;64776;42.636;24.358;2024-02-04T10:49:15;90211.38;;;6.26;72.34
76074;BME280;64776;42.636;24.358;2024-02-04T10:52:17;90213.41;;;6.22;71.87
76074;BME280;64776;42.636;24.358;2024-02-04T10:55:22;90217.69;;;6.47;72.42
76074;BME280;64776;42.636;24.358;2024-02-04T10:58:27;90208.63;;;6.81;71.13
76074;BME280;64776;42.636;24.358;2024-02-04T11:01:30;90222.41;;;7.12;69.52
76074;BME280;64776;42.636;24.358;2024-02-04T11:04:32;90237.59;;;7.44;69.07
76074;BME280;64776;42.636;24.358;2024-02-04T11:07:34;90235.03;;;7.59;68.01
76074;BME280;64776;42.636;24.358;2024-02-04T11:10:38;90206.47;;;7.77;68.22
76074;BME280;64776;42.636;24.358;2024-02-04T11:13:41;90250.94;;;7.91;66.98
76074;BME280;64776;42.636;24.358;2024-02-04T11:16:59;90247.50;;;7.76;65.94
76074;BME280;64776;42.636;24.358;2024-02-04T11:20:16;90267.75;;;7.65;67.17
76074;BME280;64776;42.636;24.358;2024-02-04T11:23:37;90288.97;;;7.74;67.08
76074;BME280;64776;42.636;24.358;2024-02-04T11:26:42;90279.03;;;7.83;66.57
76074;BME280;64776;42.636;24.358;2024-02-04T11:29:44;90273.28;;;7.85;67.15
76074;BME280;64776;42.636;24.358;2024-02-04T11:32:47;90271.59;;;7.96;66.57
76074;BME280;64776;42.636;24.358;2024-02-04T11:35:59;90262.81;;;8.05;66.23
76074;BME280;64776;42.636;24.358;2024-02-04T11:39:00;90259.31;;;8.22;65.42
76074;BME280;64776;42.636;24.358;2024-02-04T11:42:00;90263.16;;;8.21;65.66
76074;BME280;64776;42.636;24.358;2024-02-04T11:56:53;90257.56;;;8.19;63.49
76074;BME280;64776;42.636;24.358;2024-02-04T11:59:54;90251.88;;;8.36;63.54
76074;BME280;64776;42.636;24.358;2024-02-04T12:03:01;90246.84;;;8.38;63.47
76074;BME280;64776;42.636;24.358;2024-02-04T12:06:02;90248.50;;;8.50;63.23
76074;BME280;64776;42.636;24.358;2024-02-04T12:09:04;90248.31;;;8.53;62.80
76074;BME280;64776;42.636;24.358;2024-02-04T12:12:08;90252.94;;;8.53;63.16
76074;BME280;64776;42.636;24.358;2024-02-04T12:15:09;90247.84;;;8.40;63.51
76074;BME280;64776;42.636;24.358;2024-02-04T12:18:11;90248.22;;;8.48;63.12
76074;BME280;64776;42.636;24.358;2024-02-04T12:21:12;90252.75;;;8.33;65.22
76074;BME280;64776;42.636;24.358;2024-02-04T12:24:14;90257.13;;;7.97;66.03
76074;BME280;64776;42.636;24.358;2024-02-04T12:27:17;90251.81;;;7.97;66.48
76074;BME280;64776;42.636;24.358;2024-02-04T12:30:18;90243.72;;;8.15;66.68
76074;BME280;64776;42.636;24.358;2024-02-04T12:33:18;90258.31;;;8.20;67.04
76074;BME280;64776;42.636;24.358;2024-02-04T12:36:19;90268.63;;;7.94;68.24
76074;BME280;64776;42.636;24.358;2024-02-04T12:39:20;90258.47;;;7.93;68.58
76074;BME280;64776;42.636;24.358;2024-02-04T12:42:22;90274.28;;;7.87;69.49
76074;BME280;64776;42.636;24.358;2024-02-04T12:45:23;90271.13;;;7.74;69.51
76074;BME280;64776;42.636;24.358;2024-02-04T12:48:24;90278.81;;;7.63;69.40
76074;BME280;64776;42.636;24.358;2024-02-04T12:51:25;90274.81;;;7.68;69.38
76074;BME280;64776;42.636;24.358;2024-02-04T12:54:26;90269.34;;;7.71;68.73
76074;BME280;64776;42.636;24.358;2024-02-04T12:57:28;90268.25;;;7.54;68.65
76074;BME280;64776;42.636;24.358;2024-02-04T13:00:30;90277.00;;;7.46;69.20
76074;BME280;64776;42.636;24.358;2024-02-04T13:03:30;90274.13;;;7.58;67.89
76074;BME280;64776;42.636;24.358;2024-02-04T13:06:31;90269.41;;;7.62;67.66
76074;BME280;64776;42.636;24.358;2024-02-04T13:09:38;90258.13;;;7.76;67.37
76074;BME280;64776;42.636;24.358;2024-02-04T13:12:41;90260.63;;;7.71;67.11
76074;BME280;64776;42.636;24.358;2024-02-04T13:15:43;90253.09;;;7.78;67.68
76074;BME280;64776;42.636;24.358;2024-02-04T13:18:44;90258.22;;;7.58;67.54
76074;BME280;64776;42.636;24.358;2024-02-04T13:21:44;90274.38;;;7.69;67.17
76074;BME280;64776;42.636;24.358;2024-02-04T13:24:45;90266.69;;;7.71;67.33
76074;BME280;64776;42.636;24.358;2024-02-04T13:27:47;90250.19;;;7.67;67.49
76074;BME280;64776;42.636;24.358;2024-02-04T13:30:48;90269.13;;;7.51;67.56
76074;BME280;64776;42.636;24.358;2024-02-04T13:33:49;90274.44;;;7.51;67.69
76074;BME280;64776;42.636;24.358;2024-02-04T13:36:50;90261.50;;;7.44;66.23
76074;BME280;64776;42.636;24.358;2024-02-04T13:39:51;90287.88;;;7.48;67.23
76074;BME280;64776;42.636;24.358;2024-02-04T13:42:53;90277.09;;;7.51;67.09
76074;BME280;64776;42.636;24.358;2024-02-04T13:45:53;90284.19;;;7.54;67.30
76074;BME280;64776;42.636;24.358;2024-02-04T13:48:54;90283.44;;;7.54;67.46
76074;BME280;64776;42.636;24.358;2024-02-04T13:51:55;90292.84;;;7.64;66.84
76074;BME280;64776;42.636;24.358;2024-02-04T13:54:56;90283.00;;;7.55;67.28
76074;BME280;64776;42.636;24.358;2024-02-04T13:57:58;90294.38;;;7.47;67.57
76074;BME280;64776;42.636;24.358;2024-02-04T14:00:59;90307.53;;;7.41;67.16
76074;BME280;64776;42.636;24.358;2024-02-04T14:04:00;90327.75;;;7.29;67.75
76074;BME280;64776;42.636;24.358;2024-02-04T14:07:01;90312.88;;;7.23;68.62
76074;BME280;64776;42.636;24.358;2024-02-04T14:10:01;90317.44;;;7.22;68.96
76074;BME280;64776;42.636;24.358;2024-02-04T14:13:04;90295.34;;;7.16;69.95
76074;BME280;64776;42.636;24.358;2024-02-04T14:16:05;90299.75;;;7.28;69.30
76074;BME280;64776;42.636;24.358;2024-02-04T14:19:06;90302.41;;;7.19;69.57
76074;BME280;64776;42.636;24.358;2024-02-04T14:22:07;90299.31;;;7.21;69.69
76074;BME280;64776;42.636;24.358;2024-02-04T14:25:08;90291.22;;;7.15;69.00
76074;BME280;64776;42.636;24.358;2024-02-04T14:28:10;90303.03;;;7.05;69.09
76074;BME280;64776;42.636;24.358;2024-02-04T14:31:11;90296.84;;;6.99;69.34
76074;BME280;64776;42.636;24.358;2024-02-04T14:34:12;90274.03;;;6.93;69.48
76074;BME280;64776;42.636;24.358;2024-02-04T14:37:13;90282.59;;;6.88;69.71
76074;BME280;64776;42.636;24.358;2024-02-04T14:40:14;90270.38;;;6.81;69.51
76074;BME280;64776;42.636;24.358;2024-02-04T14:43:16;90250.78;;;6.79;69.49
76074;BME280;64776;42.636;24.358;2024-02-04T14:46:17;90260.22;;;6.80;69.84
76074;BME280;64776;42.636;24.358;2024-02-04T14:49:18;90233.13;;;6.76;70.34
76074;BME280;64776;42.636;24.358;2024-02-04T14:52:19;90241.34;;;6.78;70.70
76074;BME280;64776;42.636;24.358;2024-02-04T14:55:19;90242.22;;;6.75;70.63
76074;BME280;64776;42.636;24.358;2024-02-04T14:58:22;90246.94;;;6.80;70.81
76074;BME280;64776;42.636;24.358;2024-02-04T15:01:22;90240.78;;;6.74;71.60
76074;BME280;64776;42.636;24.358;2024-02-04T15:04:23;90249.91;;;6.73;71.57
76074;BME280;64776;42.636;24.358;2024-02-04T15:07:24;90256.09;;;6.70;72.45
76074;BME280;64776;42.636;24.358;2024-02-04T15:10:25;90254.47;;;6.63;72.90
76074;BME280;64776;42.636;24.358;2024-02-04T15:13:27;90263.31;;;6.60;73.66
76074;BME280;64776;42.636;24.358;2024-02-04T15:16:29;90256.69;;;6.55;74.26
76074;BME280;64776;42.636;24.358;2024-02-04T15:19:30;90267.44;;;6.52;74.53
76074;BME280;64776;42.636;24.358;2024-02-04T15:22:31;90257.44;;;6.47;74.52
76074;BME280;64776;42.636;24.358;2024-02-04T15:25:32;90280.41;;;6.50;74.51
76074;BME280;64776;42.636;24.358;2024-02-04T15:28:36;90265.97;;;6.51;74.94
76074;BME280;64776;42.636;24.358;2024-02-04T15:31:38;90281.31;;;6.47;74.76
76074;BME280;64776;42.636;24.358;2024-02-04T15:34:40;90281.00;;;6.45;74.90
76074;BME280;64776;42.636;24.358;2024-02-04T15:37:41;90289.97;;;6.47;74.87
76074;BME280;64776;42.636;24.358;2024-02-04T15:40:42;90281.72;;;6.45;74.22
76074;BME280;64776;42.636;24.358;2024-02-04T15:43:44;90280.25;;;6.44;74.54
76074;BME280;64776;42.636;24.358;2024-02-04T15:46:45;90269.50;;;6.48;73.40
76074;BME280;64776;42.636;24.358;2024-02-04T15:49:48;90276.00;;;6.47;73.49
76074;BME280;64776;42.636;24.358;2024-02-04T15:52:50;90274.50;;;6.46;73.32
76074;BME280;64776;42.636;24.358;2024-02-04T15:55:51;90269.94;;;6.46;73.43
76074;BME280;64776;42.636;24.358;2024-02-04T15:59:01;90288.81;;;6.48;73.51
76074;BME280;64776;42.636;24.358;2024-02-04T16:02:06;90272.91;;;6.48;73.09
76074;BME280;64776;42.636;24.358;2024-02-04T16:05:08;90279.22;;;6.42;73.65
76074;BME280;64776;42.636;24.358;2024-02-04T16:08:10;90280.69;;;6.43;72.87
76074;BME280;64776;42.636;24.358;2024-02-04T16:11:16;90275.84;;;6.41;72.52
76074;BME280;64776;42.636;24.358;2024-02-04T16:14:23;90274.66;;;6.42;72.51
76074;BME280;64776;42.636;24.358;2024-02-04T16:17:25;90275.09;;;6.41;71.99
76074;BME280;64776;42.636;24.358;2024-02-04T16:20:26;90269.50;;;6.39;71.67
76074;BME280;64776;42.636;24.358;2024-02-04T16:23:27;90260.97;;;6.35;72.09